Time;durP1;ratioP1;P1;durP2;ratioP2;P2;SDS_P1;SDS_P2;PMS_P1;PMS_P2;Temp;Humidity;BMP_temperature;BMP_pressure;BME280_temperature;BME280_humidity;BME280_pressure;Samples;Min_cycle;Max_cycle;Signal;HPM_P1;HPM_P2
2022/08/03 00:01:22;;;;;;;7.28;4.40;;;;;;;;;;5033148;28;20434;-65
2022/08/03 00:03:47;;;;;;;7.15;4.45;;;;;;;;;;5033064;28;20100;-66
2022/08/03 00:06:12;;;;;;;9.05;5.07;;;;;;;;;;5033336;28;20377;-66
2022/08/03 00:08:37;;;;;;;8.23;4.65;;;;;;;;;;5032926;28;20543;-66
2022/08/03 00:11:03;;;;;;;8.70;5.07;;;;;;;;;;5033076;28;20017;-66
2022/08/03 00:13:28;;;;;;;8.65;4.45;;;;;;;;;;5032913;28;20022;-66
2022/08/03 00:15:54;;;;;;;7.70;4.45;;;;;;;;;;5033141;28;20105;-66
2022/08/03 00:18:19;;;;;;;9.93;4.88;;;;;;;;;;5032648;28;20501;-66
2022/08/03 00:20:45;;;;;;;8.73;4.90;;;;;;;;;;5032652;28;20100;-66
2022/08/03 00:23:10;;;;;;;8.05;4.50;;;;;;;;;;5032333;28;20045;-66
2022/08/03 00:25:36;;;;;;;6.35;4.60;;;;;;;;;;5032512;28;20494;-66
2022/08/03 00:28:02;;;;;;;9.05;4.68;;;;;;;;;;5032745;28;20041;-67
2022/08/03 00:30:27;;;;;;;8.95;4.65;;;;;;;;;;5032439;28;20064;-66
2022/08/03 00:32:52;;;;;;;8.35;4.63;;;;;;;;;;5032846;28;20045;-66
2022/08/03 00:35:18;;;;;;;8.13;5.07;;;;;;;;;;5032385;28;20381;-66
2022/08/03 00:37:43;;;;;;;7.88;5.20;;;;;;;;;;5032317;28;20465;-66
2022/08/03 00:40:10;;;;;;;9.32;5.05;;;;;;;;;;5032462;28;20470;-66
2022/08/03 00:42:44;;;;;;;9.82;5.80;;;;;;;;;;5032502;28;20043;-66
2022/08/03 00:45:10;;;;;;;8.65;5.93;;;;;;;;;;5030795;28;20486;-66
2022/08/03 00:47:35;;;;;;;8.02;5.32;;;;;;;;;;5032279;28;20033;-66
2022/08/03 00:50:00;;;;;;;9.05;6.05;;;;;;;;;;5032154;28;20033;-66
2022/08/03 00:52:25;;;;;;;10.65;6.22;;;;;;;;;;5032196;28;20323;-66
2022/08/03 00:54:51;;;;;;;9.88;6.28;;;;;;;;;;5031709;28;20478;-66
2022/08/03 00:57:16;;;;;;;11.63;5.97;;;;;;;;;;5032510;28;20048;-66
2022/08/03 00:59:41;;;;;;;8.75;6.00;;;;;;;;;;5032075;28;20488;-66
2022/08/03 01:02:06;;;;;;;9.98;6.20;;;;;;;;;;5032568;28;20027;-66
2022/08/03 01:04:32;;;;;;;9.70;6.63;;;;;;;;;;5031662;28;20032;-66
2022/08/03 01:07:16;;;;;;;11.48;7.05;;;;;;;;;;5032223;28;20032;-66
2022/08/03 01:10:02;;;;;;;9.07;6.60;;;;;;;;;;5031723;28;20052;-66
2022/08/03 01:12:33;;;;;;;10.70;6.43;;;;;;;;;;5032082;28;20481;-66
2022/08/03 01:15:07;;;;;;;14.48;6.35;;;;;;;;;;5031799;28;20459;-66
2022/08/03 01:17:38;;;;;;;11.15;8.13;;;;;;;;;;5031869;28;20032;-65
2022/08/03 01:20:03;;;;;;;12.32;6.93;;;;;;;;;;5031894;28;20029;-66
2022/08/03 01:22:50;;;;;;;12.48;7.60;;;;;;;;;;5031936;28;20547;-66
2022/08/03 01:25:35;;;;;;;13.80;8.30;;;;;;;;;;5030792;28;20021;-66
2022/08/03 01:28:19;;;;;;;10.60;6.78;;;;;;;;;;5031891;28;20489;-66
2022/08/03 01:30:45;;;;;;;11.25;6.72;;;;;;;;;;5012212;28;20390;-66
2022/08/03 01:33:23;;;;;;;11.23;8.00;;;;;;;;;;5012072;28;20072;-65
2022/08/03 01:35:51;;;;;;;10.70;7.25;;;;;;;;;;5021215;28;20080;-66
2022/08/03 01:38:22;;;;;;;11.70;8.18;;;;;;;;;;5030819;28;20079;-66
2022/08/03 01:40:50;;;;;;;11.18;8.05;;;;;;;;;;5031664;28;20359;-66
2022/08/03 01:43:17;;;;;;;10.20;7.57;;;;;;;;;;5031048;28;20025;-66
2022/08/03 01:45:43;;;;;;;13.35;7.60;;;;;;;;;;5031616;28;20531;-66
2022/08/03 01:48:10;;;;;;;13.25;8.55;;;;;;;;;;5031245;28;20021;-65
2022/08/03 01:50:35;;;;;;;13.15;8.48;;;;;;;;;;5031275;28;20022;-66
2022/08/03 01:53:01;;;;;;;11.82;8.40;;;;;;;;;;5031367;28;20034;-66
2022/08/03 01:55:27;;;;;;;13.23;8.88;;;;;;;;;;5030985;28;20019;-66
2022/08/03 01:57:52;;;;;;;12.35;8.50;;;;;;;;;;5031266;28;20107;-66
2022/08/03 02:00:18;;;;;;;12.43;8.00;;;;;;;;;;5031003;28;20018;-66
2022/08/03 02:02:46;;;;;;;11.63;8.23;;;;;;;;;;5031083;28;20033;-66
2022/08/03 02:05:12;;;;;;;16.33;9.00;;;;;;;;;;5031205;28;20079;-66
2022/08/03 02:07:39;;;;;;;9.73;8.20;;;;;;;;;;5031231;28;20413;-66
2022/08/03 02:10:06;;;;;;;12.05;8.30;;;;;;;;;;5030866;28;20030;-66
2022/08/03 02:12:31;;;;;;;12.07;7.25;;;;;;;;;;5031120;28;20108;-66
2022/08/03 02:14:58;;;;;;;10.48;7.70;;;;;;;;;;5030759;28;20049;-66
2022/08/03 02:17:25;;;;;;;11.77;7.65;;;;;;;;;;5031364;28;20036;-66
2022/08/03 02:19:51;;;;;;;13.00;9.57;;;;;;;;;;5030147;28;20021;-66
2022/08/03 02:22:16;;;;;;;12.63;9.38;;;;;;;;;;5031470;28;20084;-66
2022/08/03 02:24:41;;;;;;;11.68;8.80;;;;;;;;;;5030866;28;20481;-66
2022/08/03 02:27:12;;;;;;;11.77;7.75;;;;;;;;;;5031246;28;20021;-66
2022/08/03 02:29:38;;;;;;;12.25;8.10;;;;;;;;;;5030998;28;20489;-66
2022/08/03 02:32:05;;;;;;;12.98;9.57;;;;;;;;;;5030998;28;20100;-66
2022/08/03 02:34:32;;;;;;;16.55;8.65;;;;;;;;;;5030912;28;20017;-66
2022/08/03 02:36:59;;;;;;;12.45;8.02;;;;;;;;;;5030719;28;20028;-66
2022/08/03 02:39:25;;;;;;;15.50;8.50;;;;;;;;;;5030558;28;20096;-65
2022/08/03 02:41:51;;;;;;;11.98;9.07;;;;;;;;;;5030595;28;20025;-66
2022/08/03 02:44:22;;;;;;;11.45;8.70;;;;;;;;;;5030643;28;20028;-66
2022/08/03 02:46:48;;;;;;;13.88;8.75;;;;;;;;;;5031096;28;20666;-66
2022/08/03 02:49:15;;;;;;;15.35;9.32;;;;;;;;;;5031590;28;20037;-66
2022/08/03 02:51:41;;;;;;;12.85;9.30;;;;;;;;;;5034602;28;20536;-65
2022/08/03 02:54:08;;;;;;;14.80;8.60;;;;;;;;;;5034434;28;20022;-66
2022/08/03 02:56:34;;;;;;;13.25;8.63;;;;;;;;;;5034387;28;20025;-65
2022/08/03 02:59:03;;;;;;;17.15;9.30;;;;;;;;;;5034435;28;20163;-65
2022/08/03 03:01:29;;;;;;;15.32;9.35;;;;;;;;;;5034658;28;20479;-66
2022/08/03 03:03:56;;;;;;;16.92;9.68;;;;;;;;;;5033867;28;20025;-65
2022/08/03 03:06:22;;;;;;;15.63;8.90;;;;;;;;;;5034369;28;20101;-66
2022/08/03 03:08:47;;;;;;;13.43;9.82;;;;;;;;;;5034131;28;20548;-66
2022/08/03 03:11:13;;;;;;;15.20;10.02;;;;;;;;;;5034473;28;20013;-66
2022/08/03 03:13:39;;;;;;;15.52;9.50;;;;;;;;;;5034046;28;20363;-66
2022/08/03 03:16:05;;;;;;;13.55;8.95;;;;;;;;;;5034052;28;20035;-66
2022/08/03 03:18:31;;;;;;;16.15;9.70;;;;;;;;;;5034002;28;20114;-66
2022/08/03 03:20:57;;;;;;;13.98;9.65;;;;;;;;;;5034056;28;20056;-66
2022/08/03 03:23:23;;;;;;;15.05;8.60;;;;;;;;;;5032446;28;20021;-66
2022/08/03 03:25:49;;;;;;;13.27;8.85;;;;;;;;;;5033910;28;20036;-66
2022/08/03 03:28:14;;;;;;;16.25;9.80;;;;;;;;;;5033741;28;20453;-66
2022/08/03 03:30:39;;;;;;;13.10;9.82;;;;;;;;;;5033646;28;20053;-66
2022/08/03 03:33:04;;;;;;;14.73;10.10;;;;;;;;;;5034095;28;20382;-66
2022/08/03 03:35:30;;;;;;;14.65;9.68;;;;;;;;;;5033666;28;20027;-66
2022/08/03 03:37:55;;;;;;;21.80;9.85;;;;;;;;;;5033949;28;20030;-66
2022/08/03 03:40:21;;;;;;;14.40;9.38;;;;;;;;;;5033641;28;20539;-66
2022/08/03 03:42:46;;;;;;;14.43;10.02;;;;;;;;;;5033669;28;20493;-66
2022/08/03 03:45:11;;;;;;;16.23;10.20;;;;;;;;;;5033526;28;20109;-66
2022/08/03 03:47:40;;;;;;;14.02;9.00;;;;;;;;;;5033709;28;20022;-66
2022/08/03 03:50:05;;;;;;;17.15;8.73;;;;;;;;;;5033340;28;20397;-66
2022/08/03 03:52:31;;;;;;;12.60;8.07;;;;;;;;;;5032127;28;20040;-66
2022/08/03 03:54:56;;;;;;;15.05;8.70;;;;;;;;;;5033292;28;20029;-66
2022/08/03 03:57:22;;;;;;;12.57;8.55;;;;;;;;;;5033283;28;20026;-66
2022/08/03 03:59:47;;;;;;;11.13;8.18;;;;;;;;;;5033008;28;20104;-66
2022/08/03 04:02:13;;;;;;;14.43;8.43;;;;;;;;;;5033188;28;20014;-66
2022/08/03 04:12:54;;;;;;;15.13;9.73;;;;;;;;;;5033053;28;20389;-66
2022/08/03 04:15:21;;;;;;;17.80;10.05;;;;;;;;;;5033047;28;20026;-67
2022/08/03 04:17:49;;;;;;;14.35;10.00;;;;;;;;;;5033197;28;20470;-67
2022/08/03 04:20:15;;;;;;;14.90;8.77;;;;;;;;;;5032219;28;20057;-66
2022/08/03 04:22:40;;;;;;;9.77;7.47;;;;;;;;;;5032877;28;20514;-66
2022/08/03 04:25:07;;;;;;;11.63;8.07;;;;;;;;;;5032641;28;20029;-66
2022/08/03 04:27:38;;;;;;;13.70;8.00;;;;;;;;;;5032636;28;20029;-66
2022/08/03 04:30:04;;;;;;;14.63;9.10;;;;;;;;;;5032384;28;20025;-66
2022/08/03 04:32:30;;;;;;;16.05;8.88;;;;;;;;;;5032131;28;20026;-66
2022/08/03 04:34:56;;;;;;;10.75;7.85;;;;;;;;;;5032225;28;20044;-66
2022/08/03 04:37:27;;;;;;;10.73;6.38;;;;;;;;;;5032708;28;20037;-66
2022/08/03 04:39:53;;;;;;;10.65;6.60;;;;;;;;;;5032418;28;20382;-66
2022/08/03 04:42:19;;;;;;;10.23;6.68;;;;;;;;;;5032545;28;20033;-67
2022/08/03 04:44:45;;;;;;;9.77;6.15;;;;;;;;;;5032324;28;20018;-67
2022/08/03 04:47:10;;;;;;;11.63;6.03;;;;;;;;;;5032600;28;20452;-66
2022/08/03 04:49:36;;;;;;;11.65;5.95;;;;;;;;;;5031839;28;20024;-67
2022/08/03 04:52:02;;;;;;;7.82;4.90;;;;;;;;;;5032175;28;20032;-67
2022/08/03 04:54:27;;;;;;;11.05;5.38;;;;;;;;;;5032309;28;20525;-67
2022/08/03 04:56:52;;;;;;;8.07;5.15;;;;;;;;;;5032354;28;20024;-66
2022/08/03 04:59:18;;;;;;;9.73;5.95;;;;;;;;;;5032184;28;20036;-67
2022/08/03 05:01:43;;;;;;;7.68;5.13;;;;;;;;;;5032283;28;20032;-67
2022/08/03 05:04:09;;;;;;;8.50;5.20;;;;;;;;;;5032146;28;20114;-67
2022/08/03 05:06:34;;;;;;;8.93;5.40;;;;;;;;;;5032271;28;20028;-67
2022/08/03 05:08:59;;;;;;;8.45;5.07;;;;;;;;;;5031891;28;20030;-67
2022/08/03 05:11:24;;;;;;;10.18;5.40;;;;;;;;;;5031236;28;20443;-67
2022/08/03 05:13:50;;;;;;;8.27;5.72;;;;;;;;;;5031624;28;20087;-67
2022/08/03 05:16:15;;;;;;;9.55;5.38;;;;;;;;;;5031987;28;20021;-66
2022/08/03 05:18:41;;;;;;;8.25;5.60;;;;;;;;;;5031507;28;20040;-66
2022/08/03 05:21:06;;;;;;;8.68;6.05;;;;;;;;;;5032123;28;20048;-66
2022/08/03 05:23:32;;;;;;;11.43;5.90;;;;;;;;;;5031534;28;20116;-66
2022/08/03 05:25:57;;;;;;;7.75;5.65;;;;;;;;;;5031962;28;20031;-66
2022/08/03 05:28:22;;;;;;;6.80;5.30;;;;;;;;;;5031428;28;20056;-66
2022/08/03 05:30:47;;;;;;;8.98;5.18;;;;;;;;;;5031648;28;20022;-66
2022/08/03 05:33:13;;;;;;;11.30;6.43;;;;;;;;;;5031545;28;20021;-67
2022/08/03 05:35:38;;;;;;;9.25;5.47;;;;;;;;;;5023075;28;20383;-66
2022/08/03 05:38:04;;;;;;;10.07;5.68;;;;;;;;;;5012123;28;20570;-66
2022/08/03 05:40:30;;;;;;;7.35;5.20;;;;;;;;;;5030715;28;20033;-66
2022/08/03 05:42:55;;;;;;;8.00;5.07;;;;;;;;;;5031448;28;20551;-66
2022/08/03 05:45:21;;;;;;;13.93;5.60;;;;;;;;;;5031155;28;20026;-65
2022/08/03 05:47:46;;;;;;;10.52;5.30;;;;;;;;;;5031551;28;20021;-66
2022/08/03 05:50:12;;;;;;;7.90;4.70;;;;;;;;;;5031148;28;20014;-66
2022/08/03 05:52:38;;;;;;;8.75;4.97;;;;;;;;;;5031303;28;20076;-66
2022/08/03 05:55:07;;;;;;;9.93;5.03;;;;;;;;;;5031175;28;20052;-66
2022/08/03 05:57:32;;;;;;;8.88;4.40;;;;;;;;;;5031092;28;20487;-66
2022/08/03 05:59:57;;;;;;;7.88;4.50;;;;;;;;;;5031181;28;20060;-66
2022/08/03 06:02:23;;;;;;;9.73;4.80;;;;;;;;;;5031526;28;20018;-66
2022/08/03 06:04:48;;;;;;;8.13;4.35;;;;;;;;;;5030955;28;20036;-66
2022/08/03 06:07:13;;;;;;;8.07;4.38;;;;;;;;;;5031282;28;20091;-66
2022/08/03 06:09:40;;;;;;;6.40;4.35;;;;;;;;;;5030841;28;20444;-66
2022/08/03 06:12:05;;;;;;;8.57;4.10;;;;;;;;;;5030555;28;20022;-66
2022/08/03 06:14:31;;;;;;;8.50;4.50;;;;;;;;;;5030667;28;20147;-67
2022/08/03 06:16:56;;;;;;;8.73;4.47;;;;;;;;;;5030869;28;20022;-67
2022/08/03 06:19:23;;;;;;;7.47;4.78;;;;;;;;;;5030762;28;20088;-66
2022/08/03 06:21:48;;;;;;;7.65;4.88;;;;;;;;;;5030915;28;20026;-66
2022/08/03 06:24:13;;;;;;;6.97;4.43;;;;;;;;;;5034226;28;20075;-66
2022/08/03 06:26:38;;;;;;;11.48;5.15;;;;;;;;;;5035359;28;20060;-66
2022/08/03 06:29:04;;;;;;;8.35;4.88;;;;;;;;;;5034835;28;20065;-66
2022/08/03 06:31:29;;;;;;;9.13;4.65;;;;;;;;;;5034909;28;20416;-66
2022/08/03 06:33:54;;;;;;;8.02;4.50;;;;;;;;;;5034543;28;20029;-66
2022/08/03 06:36:19;;;;;;;8.63;4.30;;;;;;;;;;5034867;28;20362;-66
2022/08/03 06:38:45;;;;;;;9.80;4.35;;;;;;;;;;5034437;28;20025;-66
2022/08/03 06:41:10;;;;;;;9.55;4.18;;;;;;;;;;5034386;28;20076;-66
2022/08/03 06:43:36;;;;;;;9.43;4.53;;;;;;;;;;5034698;28;20029;-67
2022/08/03 06:46:01;;;;;;;8.93;4.35;;;;;;;;;;5034639;28;20029;-66
2022/08/03 06:48:27;;;;;;;10.57;4.20;;;;;;;;;;5034360;28;20028;-66
2022/08/03 06:50:52;;;;;;;9.77;3.85;;;;;;;;;;5034721;28;20022;-66
2022/08/03 06:53:17;;;;;;;6.07;3.58;;;;;;;;;;5034199;28;20033;-67
2022/08/03 06:55:42;;;;;;;10.77;3.97;;;;;;;;;;5034656;28;20025;-67
2022/08/03 06:58:08;;;;;;;5.60;3.67;;;;;;;;;;5034642;28;20021;-67
2022/08/03 07:00:33;;;;;;;8.43;3.63;;;;;;;;;;5034382;28;20104;-66
2022/08/03 07:02:59;;;;;;;8.43;3.65;;;;;;;;;;5034539;28;20183;-66
2022/08/03 07:05:24;;;;;;;10.75;3.50;;;;;;;;;;5034021;28;20504;-66
2022/08/03 07:07:50;;;;;;;7.60;3.45;;;;;;;;;;5034506;28;20117;-67
2022/08/03 07:10:15;;;;;;;7.15;3.13;;;;;;;;;;5034259;28;20385;-66
2022/08/03 07:12:40;;;;;;;8.23;2.80;;;;;;;;;;5034180;28;20020;-66
2022/08/03 07:15:06;;;;;;;9.38;3.53;;;;;;;;;;5034380;28;20378;-66
2022/08/03 07:17:33;;;;;;;9.63;3.22;;;;;;;;;;5034291;28;20096;-66
2022/08/03 07:19:59;;;;;;;9.80;2.72;;;;;;;;;;5033965;28;20017;-66
2022/08/03 07:22:24;;;;;;;5.68;2.40;;;;;;;;;;5034284;28;20022;-66
2022/08/03 07:24:49;;;;;;;9.68;3.28;;;;;;;;;;5033652;28;20531;-66
2022/08/03 07:27:15;;;;;;;8.65;3.20;;;;;;;;;;5034169;28;20029;-66
2022/08/03 07:29:40;;;;;;;7.93;2.92;;;;;;;;;;5033351;28;20026;-66
2022/08/03 07:32:05;;;;;;;8.05;2.90;;;;;;;;;;5033737;28;20023;-66
2022/08/03 07:34:31;;;;;;;6.97;2.70;;;;;;;;;;5033031;28;20104;-66
2022/08/03 07:36:56;;;;;;;7.03;2.78;;;;;;;;;;5033954;28;20377;-66
2022/08/03 07:39:21;;;;;;;9.40;2.50;;;;;;;;;;5033640;28;20025;-66
2022/08/03 07:41:49;;;;;;;7.97;2.50;;;;;;;;;;5033108;28;20035;-66
2022/08/03 07:44:14;;;;;;;7.38;2.50;;;;;;;;;;5033786;28;20029;-66
2022/08/03 07:46:39;;;;;;;6.05;2.42;;;;;;;;;;5033615;28;20035;-66
2022/08/03 07:49:05;;;;;;;7.43;2.30;;;;;;;;;;5033373;28;20098;-66
2022/08/03 07:51:30;;;;;;;8.35;2.47;;;;;;;;;;5033637;28;20444;-66
2022/08/03 07:53:56;;;;;;;7.15;2.35;;;;;;;;;;5033118;28;20433;-66
2022/08/03 07:56:23;;;;;;;5.57;2.20;;;;;;;;;;5033693;28;20448;-67
2022/08/03 07:58:48;;;;;;;7.28;2.33;;;;;;;;;;5033112;28;20025;-65
2022/08/03 08:01:15;;;;;;;10.63;2.60;;;;;;;;;;5033218;28;20028;-66
2022/08/03 08:03:41;;;;;;;6.35;2.28;;;;;;;;;;5033282;28;20085;-66
2022/08/03 08:06:06;;;;;;;7.53;2.25;;;;;;;;;;5033293;28;20029;-66
2022/08/03 08:08:31;;;;;;;6.15;2.13;;;;;;;;;;5032675;28;20033;-66
2022/08/03 08:10:57;;;;;;;8.70;2.10;;;;;;;;;;5033104;28;20067;-66
2022/08/03 08:13:23;;;;;;;5.40;2.33;;;;;;;;;;5032884;28;20021;-66
2022/08/03 08:15:48;;;;;;;5.53;2.10;;;;;;;;;;5033301;28;20025;-66
2022/08/03 08:18:13;;;;;;;8.95;2.20;;;;;;;;;;5032689;28;20028;-66
2022/08/03 08:20:38;;;;;;;8.68;2.20;;;;;;;;;;5033296;28;20025;-66
2022/08/03 08:23:05;;;;;;;7.90;2.42;;;;;;;;;;5032926;28;20017;-66
2022/08/03 08:25:31;;;;;;;8.70;2.50;;;;;;;;;;5032716;28;20052;-66
2022/08/03 08:27:56;;;;;;;8.52;2.60;;;;;;;;;;5033122;28;20437;-66
2022/08/03 08:30:22;;;;;;;6.03;2.03;;;;;;;;;;5032427;28;20033;-66
2022/08/03 08:32:48;;;;;;;7.00;2.03;;;;;;;;;;5033007;28;20017;-66
2022/08/03 08:35:13;;;;;;;5.75;1.90;;;;;;;;;;5032501;28;20476;-64
2022/08/03 08:37:39;;;;;;;7.45;2.13;;;;;;;;;;5032507;28;20025;-64
2022/08/03 08:40:05;;;;;;;5.82;1.90;;;;;;;;;;5032157;28;20041;-64
2022/08/03 08:42:31;;;;;;;7.70;2.05;;;;;;;;;;5032607;28;20101;-64
2022/08/03 08:44:56;;;;;;;6.57;1.70;;;;;;;;;;5032066;28;20053;-64
2022/08/03 08:47:26;;;;;;;5.38;1.75;;;;;;;;;;5031304;28;20078;-64
2022/08/03 08:49:52;;;;;;;5.38;1.70;;;;;;;;;;5032143;28;20485;-63
2022/08/03 08:52:20;;;;;;;8.15;2.05;;;;;;;;;;5032491;28;20056;-64
2022/08/03 08:54:45;;;;;;;7.43;2.25;;;;;;;;;;5032077;28;20070;-66
2022/08/03 08:57:11;;;;;;;6.97;1.77;;;;;;;;;;5032447;28;20022;-66
2022/08/03 08:59:36;;;;;;;5.75;1.60;;;;;;;;;;5031828;28;20030;-66
2022/08/03 09:02:01;;;;;;;10.07;1.80;;;;;;;;;;5032382;28;20391;-66
2022/08/03 09:04:27;;;;;;;7.53;2.00;;;;;;;;;;5031804;28;20029;-66
2022/08/03 09:06:53;;;;;;;5.05;1.60;;;;;;;;;;5032068;28;20018;-66
2022/08/03 09:09:18;;;;;;;7.35;1.77;;;;;;;;;;5031959;28;20476;-66
2022/08/03 09:11:43;;;;;;;4.72;1.65;;;;;;;;;;5032034;28;20382;-66
2022/08/03 09:14:09;;;;;;;6.88;1.50;;;;;;;;;;5031644;28;20510;-66
2022/08/03 09:16:34;;;;;;;4.53;1.70;;;;;;;;;;5031711;28;20028;-66
2022/08/03 09:19:11;;;;;;;6.18;1.40;;;;;;;;;;5031361;28;20071;-66
2022/08/03 09:21:36;;;;;;;5.43;1.70;;;;;;;;;;5032147;28;20437;-66
2022/08/03 09:24:03;;;;;;;6.45;1.60;;;;;;;;;;5031606;28;20096;-66
2022/08/03 09:26:29;;;;;;;5.95;1.40;;;;;;;;;;5031616;28;20056;-66
2022/08/03 09:28:58;;;;;;;5.25;1.50;;;;;;;;;;5031587;28;20022;-67
2022/08/03 09:31:34;;;;;;;4.72;1.40;;;;;;;;;;5031639;28;20026;-66
2022/08/03 09:34:00;;;;;;;7.22;1.42;;;;;;;;;;5031318;28;20101;-66
2022/08/03 09:36:35;;;;;;;6.07;1.45;;;;;;;;;;5031509;28;20020;-66
2022/08/03 09:39:05;;;;;;;8.85;1.90;;;;;;;;;;5031483;28;20021;-66
2022/08/03 09:41:30;;;;;;;4.60;1.50;;;;;;;;;;5031746;28;20504;-66
2022/08/03 09:43:56;;;;;;;5.45;1.40;;;;;;;;;;5031178;28;20025;-66
2022/08/03 09:46:21;;;;;;;5.72;1.50;;;;;;;;;;5031588;28;20029;-66
2022/08/03 09:48:46;;;;;;;5.25;1.40;;;;;;;;;;5030445;28;20107;-66
2022/08/03 09:51:14;;;;;;;4.28;1.50;;;;;;;;;;5031567;28;20030;-66
2022/08/03 09:53:43;;;;;;;6.28;1.30;;;;;;;;;;5031058;28;20037;-66
2022/08/03 09:56:08;;;;;;;6.05;1.20;;;;;;;;;;5031270;28;20036;-66
2022/08/03 09:58:43;;;;;;;8.32;1.73;;;;;;;;;;5030755;28;20017;-66
2022/08/03 10:01:08;;;;;;;4.80;1.38;;;;;;;;;;5031355;28;20018;-66
2022/08/03 10:03:35;;;;;;;6.85;1.48;;;;;;;;;;5030358;28;20033;-66
2022/08/03 10:06:19;;;;;;;3.97;1.17;;;;;;;;;;5031425;28;20417;-66
2022/08/03 10:08:44;;;;;;;5.60;1.50;;;;;;;;;;5030830;28;20041;-66
2022/08/03 10:11:09;;;;;;;4.10;1.20;;;;;;;;;;5031160;28;20064;-66
2022/08/03 10:13:35;;;;;;;4.10;1.17;;;;;;;;;;5031119;28;20100;-66
2022/08/03 10:16:03;;;;;;;6.68;1.50;;;;;;;;;;5031081;28;20080;-66
2022/08/03 10:18:28;;;;;;;5.72;1.65;;;;;;;;;;5031285;28;20025;-66
2022/08/03 10:20:57;;;;;;;5.20;1.48;;;;;;;;;;5031112;28;20115;-66
2022/08/03 10:23:23;;;;;;;7.28;1.73;;;;;;;;;;5031008;28;20363;-66
2022/08/03 10:26:00;;;;;;;6.40;1.50;;;;;;;;;;5031195;28;20040;-66
2022/08/03 10:28:27;;;;;;;6.47;1.52;;;;;;;;;;5030268;28;20032;-66
2022/08/03 10:30:54;;;;;;;6.65;1.88;;;;;;;;;;5031299;28;20044;-66
2022/08/03 10:33:20;;;;;;;6.85;1.60;;;;;;;;;;5031079;28;20017;-66
2022/08/03 10:35:47;;;;;;;5.80;1.50;;;;;;;;;;5031010;28;20521;-66
2022/08/03 10:38:16;;;;;;;5.50;1.60;;;;;;;;;;5031132;28;20025;-66
2022/08/03 10:40:42;;;;;;;6.90;1.60;;;;;;;;;;5011269;28;20121;-66
2022/08/03 10:43:21;;;;;;;7.82;1.60;;;;;;;;;;5011484;28;20485;-66
2022/08/03 10:45:47;;;;;;;7.57;1.50;;;;;;;;;;5010975;28;20018;-66
2022/08/03 10:48:13;;;;;;;7.90;1.65;;;;;;;;;;5011302;28;20072;-66
2022/08/03 10:50:39;;;;;;;7.10;1.60;;;;;;;;;;5011338;28;20459;-66
2022/08/03 10:53:05;;;;;;;7.45;1.55;;;;;;;;;;5011028;28;20112;-66
2022/08/03 10:58:36;;;;;;;7.53;1.77;;;;;;;;;;5030663;28;20203;-63
2022/08/03 11:01:01;;;;;;;;;;;;;;;;;;5031105;28;20055;-63
2022/08/03 11:03:26;;;;;;;5.82;1.65;;;;;;;;;;5030375;28;19909;-63
2022/08/03 11:05:54;;;;;;;5.87;1.23;;;;;;;;;;5030950;28;20048;-64
2022/08/03 11:08:20;;;;;;;4.68;1.40;;;;;;;;;;5030165;28;20279;-65
2022/08/03 11:10:45;;;;;;;3.92;1.13;;;;;;;;;;5032832;28;20014;-64
2022/08/03 11:13:13;;;;;;;6.78;1.38;;;;;;;;;;5034098;28;20029;-64
2022/08/03 11:15:39;;;;;;;7.30;1.30;;;;;;;;;;5034357;28;20432;-64
2022/08/03 11:18:07;;;;;;;3.10;1.13;;;;;;;;;;5034346;28;20048;-64
2022/08/03 11:20:52;;;;;;;5.93;1.60;;;;;;;;;;5033742;28;20099;-64
2022/08/03 11:23:36;;;;;;;8.13;1.60;;;;;;;;;;5034041;28;20444;-64
2022/08/03 11:26:08;;;;;;;9.23;1.50;;;;;;;;;;5034188;28;20454;-64
2022/08/03 11:28:34;;;;;;;6.45;1.50;;;;;;;;;;5033634;28;20104;-64
2022/08/03 11:31:18;;;;;;;5.25;1.50;;;;;;;;;;5033898;28;20546;-64
2022/08/03 11:34:01;;;;;;;7.22;1.60;;;;;;;;;;5033820;28;20156;-64
2022/08/03 11:36:26;;;;;;;7.57;1.60;;;;;;;;;;5034117;28;20544;-66
2022/08/03 11:39:11;;;;;;;5.63;1.50;;;;;;;;;;5034016;28;20029;-66
2022/08/03 11:41:36;;;;;;;6.68;1.42;;;;;;;;;;5033122;28;20759;-66
2022/08/03 11:44:01;;;;;;;5.80;1.63;;;;;;;;;;5033464;28;20096;-66
2022/08/03 11:46:35;;;;;;;8.75;1.50;;;;;;;;;;5033964;28;20283;-65
2022/08/03 11:49:05;;;;;;;6.68;1.50;;;;;;;;;;5033482;28;20432;-66
2022/08/03 11:51:33;;;;;;;6.22;1.38;;;;;;;;;;5033388;28;20033;-66
2022/08/03 11:53:59;;;;;;;7.85;1.40;;;;;;;;;;5033360;28;20484;-66
2022/08/03 11:56:26;;;;;;;7.00;1.38;;;;;;;;;;5033512;28;20152;-66
2022/08/03 11:58:52;;;;;;;5.78;1.33;;;;;;;;;;5032424;28;20102;-65
2022/08/03 12:01:18;;;;;;;5.30;1.33;;;;;;;;;;5033582;28;20064;-66
2022/08/03 12:03:44;;;;;;;8.70;1.67;;;;;;;;;;5032733;28;20046;-66
2022/08/03 12:06:10;;;;;;;8.20;1.67;;;;;;;;;;5033461;28;20108;-65
2022/08/03 12:08:35;;;;;;;6.93;1.95;;;;;;;;;;5033091;28;20504;-65
2022/08/03 12:11:01;;;;;;;5.60;1.88;;;;;;;;;;5033449;28;20025;-66
2022/08/03 12:13:35;;;;;;;9.27;1.70;;;;;;;;;;5033202;28;20032;-65
2022/08/03 12:16:01;;;;;;;7.57;1.55;;;;;;;;;;5033179;28;20382;-66
2022/08/03 12:18:26;;;;;;;5.07;1.33;;;;;;;;;;5032992;28;20025;-66
2022/08/03 12:20:52;;;;;;;6.90;1.50;;;;;;;;;;5032866;28;20030;-66
2022/08/03 12:23:19;;;;;;;5.30;1.17;;;;;;;;;;5032600;28;20021;-66
2022/08/03 12:25:45;;;;;;;6.60;1.75;;;;;;;;;;5032994;28;20453;-65
2022/08/03 12:28:12;;;;;;;7.28;1.52;;;;;;;;;;5033051;28;20023;-66
2022/08/03 12:30:38;;;;;;;7.80;1.50;;;;;;;;;;5033000;28;20037;-65
2022/08/03 12:33:33;;;;;;;5.68;1.42;;;;;;;;;;5032945;28;20025;-66
2022/08/03 12:36:08;;;;;;;9.38;2.17;;;;;;;;;;5027268;28;20030;-66
2022/08/03 12:38:35;;;;;;;7.57;1.77;;;;;;;;;;5032512;28;20551;-66
2022/08/03 12:41:05;;;;;;;7.65;1.90;;;;;;;;;;5032487;28;20026;-65
2022/08/03 12:43:30;;;;;;;10.00;1.90;;;;;;;;;;5032589;28;20156;-66
2022/08/03 12:46:14;;;;;;;8.00;1.50;;;;;;;;;;5032489;28;20517;-65
2022/08/03 12:48:58;;;;;;;9.88;1.55;;;;;;;;;;5031905;28;20132;-65
2022/08/03 12:51:26;;;;;;;6.45;1.40;;;;;;;;;;5032353;28;20032;-66
2022/08/03 12:53:52;;;;;;;7.93;1.80;;;;;;;;;;5032141;28;20037;-66
2022/08/03 12:56:18;;;;;;;7.55;1.52;;;;;;;;;;5032588;28;20040;-66
2022/08/03 12:58:44;;;;;;;5.45;1.20;;;;;;;;;;5032175;28;20039;-65
2022/08/03 13:01:09;;;;;;;8.02;1.40;;;;;;;;;;5032133;28;20478;-65
2022/08/03 13:03:41;;;;;;;7.53;1.42;;;;;;;;;;5030899;28;20021;-66
2022/08/03 13:06:11;;;;;;;7.43;1.20;;;;;;;;;;5032368;28;20252;-65
2022/08/03 13:08:36;;;;;;;7.28;1.50;;;;;;;;;;5031650;28;20385;-66
2022/08/03 13:11:21;;;;;;;7.45;1.55;;;;;;;;;;5032429;28;20096;-65
2022/08/03 13:13:46;;;;;;;9.57;1.50;;;;;;;;;;5031826;28;20029;-65
2022/08/03 13:16:11;;;;;;;5.47;1.25;;;;;;;;;;5031940;28;20021;-66
2022/08/03 13:18:37;;;;;;;6.53;1.67;;;;;;;;;;5031803;28;20025;-65
2022/08/03 13:21:02;;;;;;;7.97;1.48;;;;;;;;;;5032033;28;20482;-65
2022/08/03 13:23:27;;;;;;;10.05;1.88;;;;;;;;;;5031468;28;20034;-65
2022/08/03 13:25:52;;;;;;;6.77;1.50;;;;;;;;;;5031959;28;20022;-66
2022/08/03 13:28:18;;;;;;;6.75;1.52;;;;;;;;;;5031266;28;20272;-65
2022/08/03 13:30:43;;;;;;;5.55;1.48;;;;;;;;;;5031566;28;20021;-65
2022/08/03 13:33:08;;;;;;;7.15;1.50;;;;;;;;;;5030987;28;20021;-66
2022/08/03 13:35:33;;;;;;;6.65;1.50;;;;;;;;;;5031432;28;20057;-65
2022/08/03 13:37:59;;;;;;;10.27;1.50;;;;;;;;;;5031116;28;20036;-65
2022/08/03 13:40:24;;;;;;;9.70;1.70;;;;;;;;;;5031606;28;20252;-65
2022/08/03 13:42:49;;;;;;;8.25;1.55;;;;;;;;;;5031624;28;20252;-65
2022/08/03 13:45:14;;;;;;;7.07;1.40;;;;;;;;;;5031623;28;20429;-65
2022/08/03 13:47:40;;;;;;;7.70;1.65;;;;;;;;;;5031326;28;20405;-65
2022/08/03 13:50:05;;;;;;;7.13;2.00;;;;;;;;;;5033083;28;20024;-65
2022/08/03 13:52:34;;;;;;;9.32;1.48;;;;;;;;;;5031405;28;20059;-65
2022/08/03 13:55:00;;;;;;;11.30;1.80;;;;;;;;;;5031227;28;20025;-65
2022/08/03 13:57:25;;;;;;;12.27;1.40;;;;;;;;;;5030769;28;20072;-66
2022/08/03 13:59:50;;;;;;;6.57;1.33;;;;;;;;;;5030478;28;20030;-65
2022/08/03 14:02:16;;;;;;;11.27;1.63;;;;;;;;;;5031627;28;20116;-65
2022/08/03 14:04:41;;;;;;;9.15;1.85;;;;;;;;;;5031210;28;20033;-66
2022/08/03 14:07:06;;;;;;;9.50;1.63;;;;;;;;;;5031376;28;20026;-65
2022/08/03 14:09:31;;;;;;;9.13;1.50;;;;;;;;;;5031047;28;20288;-65
2022/08/03 14:11:57;;;;;;;7.63;1.70;;;;;;;;;;5031412;28;20106;-66
2022/08/03 14:14:22;;;;;;;5.97;1.40;;;;;;;;;;5031188;28;20025;-65
2022/08/03 14:16:47;;;;;;;7.88;1.48;;;;;;;;;;5031316;28;20245;-66
2022/08/03 14:19:14;;;;;;;8.33;1.77;;;;;;;;;;5030847;28;20385;-65
2022/08/03 14:21:39;;;;;;;11.55;1.60;;;;;;;;;;5031075;28;20313;-66
2022/08/03 14:24:05;;;;;;;6.50;1.40;;;;;;;;;;5030662;28;20110;-65
2022/08/03 14:26:30;;;;;;;8.23;1.60;;;;;;;;;;5031019;28;20492;-66
2022/08/03 14:28:55;;;;;;;9.45;1.77;;;;;;;;;;5030799;28;20030;-66
2022/08/03 14:31:21;;;;;;;5.43;1.52;;;;;;;;;;5031315;28;20075;-65
2022/08/03 14:33:46;;;;;;;7.00;1.30;;;;;;;;;;5030701;28;20108;-66
2022/08/03 14:36:11;;;;;;;9.43;1.70;;;;;;;;;;5031103;28;20013;-65
2022/08/03 14:38:36;;;;;;;7.70;1.45;;;;;;;;;;5030530;28;20624;-65
2022/08/03 14:41:01;;;;;;;8.00;1.90;;;;;;;;;;5030749;28;20068;-66
2022/08/03 14:43:27;;;;;;;10.40;1.63;;;;;;;;;;5030755;28;20586;-66
2022/08/03 14:45:52;;;;;;;7.30;1.60;;;;;;;;;;5034806;28;20373;-66
2022/08/03 14:48:21;;;;;;;8.68;1.55;;;;;;;;;;5034660;28;20627;-65